sensor_id;sensor_type;location;lat;lon;timestamp;P1;durP1;ratioP1;P2;durP2;ratioP2
13897;SDS011;7019;50.766;4.474;2023-07-08T00:00:16;8.90;;;6.40;;
13897;SDS011;7019;50.766;4.474;2023-07-08T00:02:44;7.93;;;6.33;;
13897;SDS011;7019;50.766;4.474;2023-07-08T00:05:12;10.07;;;7.50;;
13897;SDS011;7019;50.766;4.474;2023-07-08T00:07:43;9.20;;;6.97;;
13897;SDS011;7019;50.766;4.474;2023-07-08T00:10:12;10.23;;;6.43;;
13897;SDS011;7019;50.766;4.474;2023-07-08T00:12:40;10.03;;;6.73;;
13897;SDS011;7019;50.766;4.474;2023-07-08T00:15:08;9.20;;;6.57;;
13897;SDS011;7019;50.766;4.474;2023-07-08T00:17:36;9.13;;;6.27;;
13897;SDS011;7019;50.766;4.474;2023-07-08T00:20:08;9.37;;;6.63;;
13897;SDS011;7019;50.766;4.474;2023-07-08T00:22:38;9.60;;;6.87;;
13897;SDS011;7019;50.766;4.474;2023-07-08T00:25:07;11.07;;;6.10;;
13897;SDS011;7019;50.766;4.474;2023-07-08T00:27:34;13.03;;;6.47;;
13897;SDS011;7019;50.766;4.474;2023-07-08T00:30:04;7.83;;;6.30;;
13897;SDS011;7019;50.766;4.474;2023-07-08T00:32:45;7.70;;;6.07;;
13897;SDS011;7019;50.766;4.474;2023-07-08T00:35:12;8.63;;;6.07;;
13897;SDS011;7019;50.766;4.474;2023-07-08T00:37:39;9.33;;;6.33;;
13897;SDS011;7019;50.766;4.474;2023-07-08T00:40:15;8.13;;;6.00;;
13897;SDS011;7019;50.766;4.474;2023-07-08T00:42:44;9.53;;;6.40;;
13897;SDS011;7019;50.766;4.474;2023-07-08T00:45:15;9.53;;;5.50;;
13897;SDS011;7019;50.766;4.474;2023-07-08T00:47:53;7.00;;;5.53;;
13897;SDS011;7019;50.766;4.474;2023-07-08T00:50:33;9.90;;;6.27;;
13897;SDS011;7019;50.766;4.474;2023-07-08T00:55:51;9.03;;;6.10;;
13897;SDS011;7019;50.766;4.474;2023-07-08T00:58:20;8.17;;;6.27;;
13897;SDS011;7019;50.766;4.474;2023-07-08T01:00:49;7.67;;;5.40;;
13897;SDS011;7019;50.766;4.474;2023-07-08T01:03:22;7.60;;;6.07;;
13897;SDS011;7019;50.766;4.474;2023-07-08T01:05:51;7.10;;;6.03;;
13897;SDS011;7019;50.766;4.474;2023-07-08T01:08:21;6.83;;;5.40;;
13897;SDS011;7019;50.766;4.474;2023-07-08T01:10:56;10.70;;;6.30;;
13897;SDS011;7019;50.766;4.474;2023-07-08T01:13:26;8.13;;;5.53;;
13897;SDS011;7019;50.766;4.474;2023-07-08T01:15:55;7.97;;;6.03;;
13897;SDS011;7019;50.766;4.474;2023-07-08T01:18:22;9.27;;;5.57;;
13897;SDS011;7019;50.766;4.474;2023-07-08T01:20:50;7.33;;;6.33;;
13897;SDS011;7019;50.766;4.474;2023-07-08T01:23:21;8.17;;;6.40;;
13897;SDS011;7019;50.766;4.474;2023-07-08T01:25:49;8.43;;;6.33;;
13897;SDS011;7019;50.766;4.474;2023-07-08T01:28:17;9.53;;;6.70;;
13897;SDS011;7019;50.766;4.474;2023-07-08T01:30:44;6.87;;;5.80;;
13897;SDS011;7019;50.766;4.474;2023-07-08T01:33:15;9.80;;;5.47;;
13897;SDS011;7019;50.766;4.474;2023-07-08T01:35:44;8.77;;;5.97;;
13897;SDS011;7019;50.766;4.474;2023-07-08T01:38:14;5.50;;;4.80;;
13897;SDS011;7019;50.766;4.474;2023-07-08T01:40:49;7.93;;;6.07;;
13897;SDS011;7019;50.766;4.474;2023-07-08T01:43:18;7.87;;;5.70;;
13897;SDS011;7019;50.766;4.474;2023-07-08T01:45:45;11.30;;;6.20;;
13897;SDS011;7019;50.766;4.474;2023-07-08T01:48:15;5.97;;;5.37;;
13897;SDS011;7019;50.766;4.474;2023-07-08T01:50:45;6.57;;;5.77;;
13897;SDS011;7019;50.766;4.474;2023-07-08T01:53:17;9.50;;;6.10;;
13897;SDS011;7019;50.766;4.474;2023-07-08T01:55:50;7.30;;;5.80;;
13897;SDS011;7019;50.766;4.474;2023-07-08T01:58:17;7.53;;;5.50;;
13897;SDS011;7019;50.766;4.474;2023-07-08T02:00:44;7.43;;;5.27;;
13897;SDS011;7019;50.766;4.474;2023-07-08T02:03:14;7.17;;;5.70;;
13897;SDS011;7019;50.766;4.474;2023-07-08T02:05:42;7.37;;;5.77;;
13897;SDS011;7019;50.766;4.474;2023-07-08T02:08:09;8.23;;;5.67;;
13897;SDS011;7019;50.766;4.474;2023-07-08T02:10:36;7.63;;;5.73;;
13897;SDS011;7019;50.766;4.474;2023-07-08T02:13:05;7.57;;;5.53;;
13897;SDS011;7019;50.766;4.474;2023-07-08T02:15:33;8.67;;;5.47;;
13897;SDS011;7019;50.766;4.474;2023-07-08T02:18:00;8.40;;;5.93;;
13897;SDS011;7019;50.766;4.474;2023-07-08T02:20:27;10.60;;;5.87;;
13897;SDS011;7019;50.766;4.474;2023-07-08T02:22:55;8.63;;;6.03;;
13897;SDS011;7019;50.766;4.474;2023-07-08T02:25:22;8.90;;;6.03;;
13897;SDS011;7019;50.766;4.474;2023-07-08T02:27:49;8.47;;;6.07;;
13897;SDS011;7019;50.766;4.474;2023-07-08T02:30:18;7.23;;;5.50;;
13897;SDS011;7019;50.766;4.474;2023-07-08T02:32:45;9.37;;;5.63;;
13897;SDS011;7019;50.766;4.474;2023-07-08T02:35:21;6.43;;;5.50;;
13897;SDS011;7019;50.766;4.474;2023-07-08T02:37:49;8.30;;;5.67;;
13897;SDS011;7019;50.766;4.474;2023-07-08T02:40:16;8.10;;;5.97;;
13897;SDS011;7019;50.766;4.474;2023-07-08T02:42:43;8.63;;;5.37;;
13897;SDS011;7019;50.766;4.474;2023-07-08T02:45:11;7.23;;;5.77;;
13897;SDS011;7019;50.766;4.474;2023-07-08T02:47:40;7.37;;;5.33;;
13897;SDS011;7019;50.766;4.474;2023-07-08T02:50:08;7.13;;;5.00;;
13897;SDS011;7019;50.766;4.474;2023-07-08T02:52:36;7.50;;;5.97;;
13897;SDS011;7019;50.766;4.474;2023-07-08T02:55:04;8.37;;;5.93;;
13897;SDS011;7019;50.766;4.474;2023-07-08T02:57:31;9.53;;;5.50;;
13897;SDS011;7019;50.766;4.474;2023-07-08T02:59:58;7.73;;;5.60;;
13897;SDS011;7019;50.766;4.474;2023-07-08T03:02:26;7.03;;;5.50;;
13897;SDS011;7019;50.766;4.474;2023-07-08T03:04:54;10.07;;;5.30;;
13897;SDS011;7019;50.766;4.474;2023-07-08T03:07:24;6.30;;;5.60;;
13897;SDS011;7019;50.766;4.474;2023-07-08T03:09:51;8.13;;;5.13;;
13897;SDS011;7019;50.766;4.474;2023-07-08T03:12:18;7.13;;;5.27;;
13897;SDS011;7019;50.766;4.474;2023-07-08T03:14:46;7.37;;;5.43;;
13897;SDS011;7019;50.766;4.474;2023-07-08T03:17:13;7.60;;;6.00;;
13897;SDS011;7019;50.766;4.474;2023-07-08T03:19:43;9.27;;;5.90;;
13897;SDS011;7019;50.766;4.474;2023-07-08T03:22:11;8.43;;;5.57;;
13897;SDS011;7019;50.766;4.474;2023-07-08T03:24:38;7.10;;;5.23;;
13897;SDS011;7019;50.766;4.474;2023-07-08T03:27:11;6.70;;;5.13;;
13897;SDS011;7019;50.766;4.474;2023-07-08T03:29:38;8.13;;;5.20;;
13897;SDS011;7019;50.766;4.474;2023-07-08T03:32:06;8.93;;;5.83;;
13897;SDS011;7019;50.766;4.474;2023-07-08T03:34:35;6.03;;;4.87;;
13897;SDS011;7019;50.766;4.474;2023-07-08T03:37:03;9.00;;;5.30;;
13897;SDS011;7019;50.766;4.474;2023-07-08T03:39:31;7.77;;;5.10;;
13897;SDS011;7019;50.766;4.474;2023-07-08T03:41:58;8.40;;;5.17;;
13897;SDS011;7019;50.766;4.474;2023-07-08T03:44:26;7.60;;;5.37;;
13897;SDS011;7019;50.766;4.474;2023-07-08T03:46:53;6.33;;;4.97;;
13897;SDS011;7019;50.766;4.474;2023-07-08T03:49:21;9.37;;;4.87;;
13897;SDS011;7019;50.766;4.474;2023-07-08T03:51:49;7.23;;;5.27;;
13897;SDS011;7019;50.766;4.474;2023-07-08T03:54:19;8.03;;;5.37;;
13897;SDS011;7019;50.766;4.474;2023-07-08T03:56:49;7.00;;;5.20;;
13897;SDS011;7019;50.766;4.474;2023-07-08T03:59:16;7.63;;;5.53;;
13897;SDS011;7019;50.766;4.474;2023-07-08T04:01:44;6.17;;;4.40;;
13897;SDS011;7019;50.766;4.474;2023-07-08T04:04:12;5.67;;;4.87;;
13897;SDS011;7019;50.766;4.474;2023-07-08T04:06:41;7.07;;;5.00;;
13897;SDS011;7019;50.766;4.474;2023-07-08T04:09:08;7.93;;;5.10;;
13897;SDS011;7019;50.766;4.474;2023-07-08T04:11:35;7.50;;;5.20;;
13897;SDS011;7019;50.766;4.474;2023-07-08T04:14:04;6.40;;;4.93;;
13897;SDS011;7019;50.766;4.474;2023-07-08T04:16:46;7.97;;;4.73;;
13897;SDS011;7019;50.766;4.474;2023-07-08T04:19:17;7.43;;;5.53;;
13897;SDS011;7019;50.766;4.474;2023-07-08T04:21:44;6.97;;;4.47;;
13897;SDS011;7019;50.766;4.474;2023-07-08T04:24:12;8.40;;;5.03;;
13897;SDS011;7019;50.766;4.474;2023-07-08T04:26:41;6.23;;;5.20;;
13897;SDS011;7019;50.766;4.474;2023-07-08T04:29:13;5.77;;;4.50;;
13897;SDS011;7019;50.766;4.474;2023-07-08T04:31:41;6.70;;;5.20;;
13897;SDS011;7019;50.766;4.474;2023-07-08T04:34:08;6.43;;;5.20;;
13897;SDS011;7019;50.766;4.474;2023-07-08T04:36:36;7.60;;;5.10;;
13897;SDS011;7019;50.766;4.474;2023-07-08T04:39:04;7.40;;;5.20;;
13897;SDS011;7019;50.766;4.474;2023-07-08T04:41:33;6.60;;;5.57;;
13897;SDS011;7019;50.766;4.474;2023-07-08T04:44:05;8.43;;;5.30;;
13897;SDS011;7019;50.766;4.474;2023-07-08T04:46:36;6.20;;;4.47;;
13897;SDS011;7019;50.766;4.474;2023-07-08T04:49:06;6.00;;;4.73;;
13897;SDS011;7019;50.766;4.474;2023-07-08T04:51:34;7.77;;;5.13;;
13897;SDS011;7019;50.766;4.474;2023-07-08T04:54:01;7.23;;;5.07;;
13897;SDS011;7019;50.766;4.474;2023-07-08T04:56:34;5.77;;;4.80;;
13897;SDS011;7019;50.766;4.474;2023-07-08T04:59:03;7.27;;;4.90;;
13897;SDS011;7019;50.766;4.474;2023-07-08T05:01:31;6.77;;;4.87;;
13897;SDS011;7019;50.766;4.474;2023-07-08T05:04:00;7.43;;;4.87;;
13897;SDS011;7019;50.766;4.474;2023-07-08T05:06:27;8.57;;;4.67;;
13897;SDS011;7019;50.766;4.474;2023-07-08T05:08:54;5.47;;;4.77;;
13897;SDS011;7019;50.766;4.474;2023-07-08T05:11:21;9.00;;;4.63;;
13897;SDS011;7019;50.766;4.474;2023-07-08T05:13:48;6.47;;;5.27;;
13897;SDS011;7019;50.766;4.474;2023-07-08T05:16:16;6.50;;;4.50;;
13897;SDS011;7019;50.766;4.474;2023-07-08T05:18:43;5.03;;;4.47;;
13897;SDS011;7019;50.766;4.474;2023-07-08T05:21:11;6.03;;;4.47;;
13897;SDS011;7019;50.766;4.474;2023-07-08T05:23:38;6.50;;;4.97;;
13897;SDS011;7019;50.766;4.474;2023-07-08T05:26:06;7.43;;;5.30;;
13897;SDS011;7019;50.766;4.474;2023-07-08T05:28:34;7.00;;;5.43;;
13897;SDS011;7019;50.766;4.474;2023-07-08T05:31:01;6.87;;;5.07;;
13897;SDS011;7019;50.766;4.474;2023-07-08T05:33:29;9.70;;;5.37;;
13897;SDS011;7019;50.766;4.474;2023-07-08T05:35:57;9.80;;;5.37;;
13897;SDS011;7019;50.766;4.474;2023-07-08T05:38:25;7.73;;;5.00;;
13897;SDS011;7019;50.766;4.474;2023-07-08T05:40:53;10.97;;;5.40;;
13897;SDS011;7019;50.766;4.474;2023-07-08T05:43:22;5.17;;;4.10;;
13897;SDS011;7019;50.766;4.474;2023-07-08T05:45:49;7.90;;;4.60;;
13897;SDS011;7019;50.766;4.474;2023-07-08T05:48:17;6.63;;;4.37;;
13897;SDS011;7019;50.766;4.474;2023-07-08T05:50:44;4.63;;;4.13;;
13897;SDS011;7019;50.766;4.474;2023-07-08T05:53:12;7.10;;;4.90;;
13897;SDS011;7019;50.766;4.474;2023-07-08T05:55:41;7.53;;;5.47;;
13897;SDS011;7019;50.766;4.474;2023-07-08T05:58:09;9.20;;;5.07;;
13897;SDS011;7019;50.766;4.474;2023-07-08T06:00:40;6.63;;;4.37;;
13897;SDS011;7019;50.766;4.474;2023-07-08T06:03:07;6.00;;;4.30;;
13897;SDS011;7019;50.766;4.474;2023-07-08T06:05:35;5.60;;;4.82;;
13897;SDS011;7019;50.766;4.474;2023-07-08T06:08:03;5.80;;;4.57;;
13897;SDS011;7019;50.766;4.474;2023-07-08T06:10:30;4.60;;;4.13;;
13897;SDS011;7019;50.766;4.474;2023-07-08T06:12:58;7.07;;;4.40;;
13897;SDS011;7019;50.766;4.474;2023-07-08T06:15:25;4.93;;;4.40;;
13897;SDS011;7019;50.766;4.474;2023-07-08T06:17:52;5.75;;;4.38;;
13897;SDS011;7019;50.766;4.474;2023-07-08T06:20:19;6.95;;;4.70;;
13897;SDS011;7019;50.766;4.474;2023-07-08T06:22:46;7.70;;;3.80;;
13897;SDS011;7019;50.766;4.474;2023-07-08T06:25:13;4.90;;;3.72;;
13897;SDS011;7019;50.766;4.474;2023-07-08T06:27:40;7.13;;;4.85;;
13897;SDS011;7019;50.766;4.474;2023-07-08T06:30:09;5.05;;;4.35;;
13897;SDS011;7019;50.766;4.474;2023-07-08T06:32:36;6.47;;;5.00;;
13897;SDS011;7019;50.766;4.474;2023-07-08T06:35:04;5.47;;;4.38;;
13897;SDS011;7019;50.766;4.474;2023-07-08T06:37:31;6.57;;;4.30;;
13897;SDS011;7019;50.766;4.474;2023-07-08T06:39:58;6.35;;;4.60;;
13897;SDS011;7019;50.766;4.474;2023-07-08T06:42:25;4.90;;;4.07;;
13897;SDS011;7019;50.766;4.474;2023-07-08T06:44:54;4.28;;;3.75;;
13897;SDS011;7019;50.766;4.474;2023-07-08T06:47:23;5.85;;;4.53;;
13897;SDS011;7019;50.766;4.474;2023-07-08T06:49:50;5.70;;;4.53;;
13897;SDS011;7019;50.766;4.474;2023-07-08T06:52:17;7.15;;;4.10;;
13897;SDS011;7019;50.766;4.474;2023-07-08T06:54:44;10.00;;;4.15;;
13897;SDS011;7019;50.766;4.474;2023-07-08T06:57:11;5.80;;;4.43;;
13897;SDS011;7019;50.766;4.474;2023-07-08T06:59:38;5.97;;;4.65;;
13897;SDS011;7019;50.766;4.474;2023-07-08T07:02:05;5.28;;;4.50;;
13897;SDS011;7019;50.766;4.474;2023-07-08T07:04:34;7.25;;;4.32;;
13897;SDS011;7019;50.766;4.474;2023-07-08T07:07:01;5.50;;;4.60;;
13897;SDS011;7019;50.766;4.474;2023-07-08T07:09:28;7.53;;;4.97;;
13897;SDS011;7019;50.766;4.474;2023-07-08T07:11:55;5.60;;;4.30;;
13897;SDS011;7019;50.766;4.474;2023-07-08T07:14:22;8.10;;;4.20;;
13897;SDS011;7019;50.766;4.474;2023-07-08T07:16:49;5.88;;;4.65;;
13897;SDS011;7019;50.766;4.474;2023-07-08T07:19:16;6.28;;;4.63;;
13897;SDS011;7019;50.766;4.474;2023-07-08T07:21:44;7.90;;;4.50;;
13897;SDS011;7019;50.766;4.474;2023-07-08T07:24:11;7.38;;;5.18;;
13897;SDS011;7019;50.766;4.474;2023-07-08T07:26:38;6.20;;;4.80;;
13897;SDS011;7019;50.766;4.474;2023-07-08T07:29:06;5.45;;;4.47;;
13897;SDS011;7019;50.766;4.474;2023-07-08T07:31:33;6.43;;;4.72;;
13897;SDS011;7019;50.766;4.474;2023-07-08T07:34:00;7.57;;;4.40;;
13897;SDS011;7019;50.766;4.474;2023-07-08T07:36:28;5.43;;;4.72;;
13897;SDS011;7019;50.766;4.474;2023-07-08T07:38:56;5.55;;;4.43;;
13897;SDS011;7019;50.766;4.474;2023-07-08T07:41:23;7.53;;;4.85;;
13897;SDS011;7019;50.766;4.474;2023-07-08T07:43:50;6.35;;;4.65;;
13897;SDS011;7019;50.766;4.474;2023-07-08T07:46:17;6.20;;;4.88;;
13897;SDS011;7019;50.766;4.474;2023-07-08T07:48:44;6.55;;;5.32;;
13897;SDS011;7019;50.766;4.474;2023-07-08T07:51:12;8.07;;;5.20;;
13897;SDS011;7019;50.766;4.474;2023-07-08T07:53:39;5.45;;;4.72;;
13897;SDS011;7019;50.766;4.474;2023-07-08T07:56:07;4.47;;;4.07;;
13897;SDS011;7019;50.766;4.474;2023-07-08T07:58:34;6.80;;;5.45;;
13897;SDS011;7019;50.766;4.474;2023-07-08T08:01:01;8.98;;;5.25;;
13897;SDS011;7019;50.766;4.474;2023-07-08T08:03:28;6.30;;;4.93;;
13897;SDS011;7019;50.766;4.474;2023-07-08T08:05:56;7.47;;;5.85;;
13897;SDS011;7019;50.766;4.474;2023-07-08T08:08:23;6.90;;;5.70;;
13897;SDS011;7019;50.766;4.474;2023-07-08T08:10:50;5.15;;;4.65;;
13897;SDS011;7019;50.766;4.474;2023-07-08T08:13:19;7.63;;;5.28;;
13897;SDS011;7019;50.766;4.474;2023-07-08T08:15:46;6.38;;;4.90;;
13897;SDS011;7019;50.766;4.474;2023-07-08T08:18:13;8.60;;;5.18;;
13897;SDS011;7019;50.766;4.474;2023-07-08T08:20:40;6.15;;;5.15;;
13897;SDS011;7019;50.766;4.474;2023-07-08T08:23:07;8.55;;;5.40;;
13897;SDS011;7019;50.766;4.474;2023-07-08T08:25:34;6.22;;;5.57;;
13897;SDS011;7019;50.766;4.474;2023-07-08T08:28:01;9.20;;;5.10;;
13897;SDS011;7019;50.766;4.474;2023-07-08T08:30:29;6.03;;;5.38;;
13897;SDS011;7019;50.766;4.474;2023-07-08T08:32:57;7.85;;;5.60;;
13897;SDS011;7019;50.766;4.474;2023-07-08T08:35:24;8.07;;;5.45;;
13897;SDS011;7019;50.766;4.474;2023-07-08T08:37:52;7.30;;;5.50;;
13897;SDS011;7019;50.766;4.474;2023-07-08T08:40:19;8.20;;;5.80;;
13897;SDS011;7019;50.766;4.474;2023-07-08T08:42:50;8.00;;;5.82;;
13897;SDS011;7019;50.766;4.474;2023-07-08T08:45:19;7.32;;;5.32;;
13897;SDS011;7019;50.766;4.474;2023-07-08T08:47:52;6.22;;;5.60;;
13897;SDS011;7019;50.766;4.474;2023-07-08T08:50:35;8.10;;;5.78;;
13897;SDS011;7019;50.766;4.474;2023-07-08T08:53:10;7.50;;;5.35;;
13897;SDS011;7019;50.766;4.474;2023-07-08T08:55:40;7.72;;;5.32;;
13897;SDS011;7019;50.766;4.474;2023-07-08T09:00:58;8.32;;;5.78;;
13897;SDS011;7019;50.766;4.474;2023-07-08T09:03:34;7.70;;;5.28;;
13897;SDS011;7019;50.766;4.474;2023-07-08T09:06:09;5.97;;;5.03;;
13897;SDS011;7019;50.766;4.474;2023-07-08T09:08:38;5.80;;;5.20;;
13897;SDS011;7019;50.766;4.474;2023-07-08T09:11:09;7.75;;;5.82;;
13897;SDS011;7019;50.766;4.474;2023-07-08T09:13:49;8.00;;;5.40;;
13897;SDS011;7019;50.766;4.474;2023-07-08T09:16:20;6.63;;;5.57;;
13897;SDS011;7019;50.766;4.474;2023-07-08T09:18:58;5.97;;;4.95;;
13897;SDS011;7019;50.766;4.474;2023-07-08T09:21:33;10.43;;;5.97;;
13897;SDS011;7019;50.766;4.474;2023-07-08T09:24:13;7.43;;;5.78;;
13897;SDS011;7019;50.766;4.474;2023-07-08T09:26:44;6.68;;;5.40;;
13897;SDS011;7019;50.766;4.474;2023-07-08T09:29:13;6.07;;;5.47;;
13897;SDS011;7019;50.766;4.474;2023-07-08T09:31:40;9.07;;;5.88;;
13897;SDS011;7019;50.766;4.474;2023-07-08T09:34:09;7.47;;;5.18;;
13897;SDS011;7019;50.766;4.474;2023-07-08T09:36:39;8.15;;;5.68;;
13897;SDS011;7019;50.766;4.474;2023-07-08T09:39:10;7.35;;;5.28;;
13897;SDS011;7019;50.766;4.474;2023-07-08T09:41:39;7.47;;;5.70;;
13897;SDS011;7019;50.766;4.474;2023-07-08T09:44:13;7.57;;;5.78;;
13897;SDS011;7019;50.766;4.474;2023-07-08T09:46:44;5.97;;;5.38;;
13897;SDS011;7019;50.766;4.474;2023-07-08T09:49:19;6.82;;;5.47;;
13897;SDS011;7019;50.766;4.474;2023-07-08T09:51:49;7.20;;;5.65;;
13897;SDS011;7019;50.766;4.474;2023-07-08T09:54:19;9.13;;;6.30;;
13897;SDS011;7019;50.766;4.474;2023-07-08T09:57:00;8.38;;;5.30;;
13897;SDS011;7019;50.766;4.474;2023-07-08T09:59:30;8.95;;;6.22;;
13897;SDS011;7019;50.766;4.474;2023-07-08T10:02:01;7.03;;;6.13;;
13897;SDS011;7019;50.766;4.474;2023-07-08T10:04:37;9.27;;;5.82;;
13897;SDS011;7019;50.766;4.474;2023-07-08T10:07:05;7.45;;;5.78;;
13897;SDS011;7019;50.766;4.474;2023-07-08T10:09:37;6.47;;;5.43;;
13897;SDS011;7019;50.766;4.474;2023-07-08T10:12:04;7.82;;;5.53;;
13897;SDS011;7019;50.766;4.474;2023-07-08T10:14:36;9.43;;;5.90;;
13897;SDS011;7019;50.766;4.474;2023-07-08T10:17:07;7.03;;;5.90;;
13897;SDS011;7019;50.766;4.474;2023-07-08T10:19:40;6.20;;;5.10;;
13897;SDS011;7019;50.766;4.474;2023-07-08T10:22:12;7.07;;;5.75;;
13897;SDS011;7019;50.766;4.474;2023-07-08T10:25:06;10.27;;;5.85;;
13897;SDS011;7019;50.766;4.474;2023-07-08T10:27:46;9.20;;;5.63;;
13897;SDS011;7019;50.766;4.474;2023-07-08T10:30:24;9.40;;;5.30;;
13897;SDS011;7019;50.766;4.474;2023-07-08T10:35:54;9.48;;;7.22;;
13897;SDS011;7019;50.766;4.474;2023-07-08T10:38:39;6.15;;;5.38;;
13897;SDS011;7019;50.766;4.474;2023-07-08T10:41:12;9.95;;;5.55;;
13897;SDS011;7019;50.766;4.474;2023-07-08T10:43:54;7.40;;;5.32;;
13897;SDS011;7019;50.766;4.474;2023-07-08T10:46:32;7.60;;;5.35;;
13897;SDS011;7019;50.766;4.474;2023-07-08T10:49:10;6.60;;;5.13;;
13897;SDS011;7019;50.766;4.474;2023-07-08T10:51:54;8.23;;;5.68;;
13897;SDS011;7019;50.766;4.474;2023-07-08T10:54:43;7.78;;;5.55;;
13897;SDS011;7019;50.766;4.474;2023-07-08T10:57:34;6.35;;;4.93;;
13897;SDS011;7019;50.766;4.474;2023-07-08T11:00:16;7.30;;;5.28;;
13897;SDS011;7019;50.766;4.474;2023-07-08T11:03:06;8.75;;;5.32;;
13897;SDS011;7019;50.766;4.474;2023-07-08T11:05:49;8.75;;;5.15;;
13897;SDS011;7019;50.766;4.474;2023-07-08T11:08:23;12.27;;;5.25;;
13897;SDS011;7019;50.766;4.474;2023-07-08T11:10:55;6.75;;;5.63;;
13897;SDS011;7019;50.766;4.474;2023-07-08T11:13:25;7.68;;;4.95;;
13897;SDS011;7019;50.766;4.474;2023-07-08T11:15:56;5.82;;;4.80;;
13897;SDS011;7019;50.766;4.474;2023-07-08T11:18:30;9.40;;;4.80;;
13897;SDS011;7019;50.766;4.474;2023-07-08T11:21:08;7.35;;;5.30;;
13897;SDS011;7019;50.766;4.474;2023-07-08T11:23:43;6.55;;;4.82;;
13897;SDS011;7019;50.766;4.474;2023-07-08T11:26:15;7.82;;;4.88;;
13897;SDS011;7019;50.766;4.474;2023-07-08T11:28:46;6.05;;;4.80;;
13897;SDS011;7019;50.766;4.474;2023-07-08T11:31:15;7.15;;;4.88;;
13897;SDS011;7019;50.766;4.474;2023-07-08T11:33:42;7.78;;;5.03;;
13897;SDS011;7019;50.766;4.474;2023-07-08T11:36:14;7.82;;;4.78;;
13897;SDS011;7019;50.766;4.474;2023-07-08T11:38:49;6.93;;;4.88;;
13897;SDS011;7019;50.766;4.474;2023-07-08T11:41:17;8.75;;;4.20;;
13897;SDS011;7019;50.766;4.474;2023-07-08T11:43:49;5.65;;;4.40;;
13897;SDS011;7019;50.766;4.474;2023-07-08T11:46:19;6.75;;;4.78;;
13897;SDS011;7019;50.766;4.474;2023-07-08T11:48:51;8.95;;;5.25;;
13897;SDS011;7019;50.766;4.474;2023-07-08T11:51:22;8.15;;;4.22;;
13897;SDS011;7019;50.766;4.474;2023-07-08T11:53:58;9.35;;;4.43;;
13897;SDS011;7019;50.766;4.474;2023-07-08T11:56:26;4.95;;;4.45;;
13897;SDS011;7019;50.766;4.474;2023-07-08T11:58:58;6.85;;;4.57;;
13897;SDS011;7019;50.766;4.474;2023-07-08T12:01:32;6.43;;;4.80;;
13897;SDS011;7019;50.766;4.474;2023-07-08T12:07:02;7.75;;;4.88;;
13897;SDS011;7019;50.766;4.474;2023-07-08T12:09:36;7.40;;;4.75;;
13897;SDS011;7019;50.766;4.474;2023-07-08T12:12:06;7.75;;;4.70;;
13897;SDS011;7019;50.766;4.474;2023-07-08T12:14:40;7.38;;;4.78;;
13897;SDS011;7019;50.766;4.474;2023-07-08T12:17:10;7.30;;;4.85;;
13897;SDS011;7019;50.766;4.474;2023-07-08T12:19:38;6.10;;;4.47;;
13897;SDS011;7019;50.766;4.474;2023-07-08T12:22:08;8.05;;;4.55;;
13897;SDS011;7019;50.766;4.474;2023-07-08T12:24:39;7.72;;;4.78;;
13897;SDS011;7019;50.766;4.474;2023-07-08T12:27:08;7.40;;;4.05;;
13897;SDS011;7019;50.766;4.474;2023-07-08T12:29:37;5.38;;;4.00;;
13897;SDS011;7019;50.766;4.474;2023-07-08T12:32:04;6.53;;;4.30;;
13897;SDS011;7019;50.766;4.474;2023-07-08T12:34:36;7.07;;;4.60;;
13897;SDS011;7019;50.766;4.474;2023-07-08T12:37:03;7.72;;;4.50;;
13897;SDS011;7019;50.766;4.474;2023-07-08T12:39:32;6.65;;;3.53;;
13897;SDS011;7019;50.766;4.474;2023-07-08T12:42:02;13.98;;;5.65;;
13897;SDS011;7019;50.766;4.474;2023-07-08T12:44:34;15.27;;;5.40;;
13897;SDS011;7019;50.766;4.474;2023-07-08T12:47:03;13.80;;;5.35;;
13897;SDS011;7019;50.766;4.474;2023-07-08T12:49:30;13.80;;;4.80;;
13897;SDS011;7019;50.766;4.474;2023-07-08T12:51:59;11.18;;;5.13;;
13897;SDS011;7019;50.766;4.474;2023-07-08T12:54:27;8.40;;;4.15;;
13897;SDS011;7019;50.766;4.474;2023-07-08T12:56:55;6.17;;;3.00;;
13897;SDS011;7019;50.766;4.474;2023-07-08T12:59:24;6.37;;;3.10;;
13897;SDS011;7019;50.766;4.474;2023-07-08T13:01:51;5.87;;;3.33;;
13897;SDS011;7019;50.766;4.474;2023-07-08T13:04:19;7.33;;;3.53;;
13897;SDS011;7019;50.766;4.474;2023-07-08T13:06:46;6.67;;;4.03;;
13897;SDS011;7019;50.766;4.474;2023-07-08T13:09:35;9.67;;;3.70;;
13897;SDS011;7019;50.766;4.474;2023-07-08T13:12:06;5.53;;;3.73;;
13897;SDS011;7019;50.766;4.474;2023-07-08T13:14:42;4.90;;;3.30;;
13897;SDS011;7019;50.766;4.474;2023-07-08T13:17:12;6.60;;;3.17;;
13897;SDS011;7019;50.766;4.474;2023-07-08T13:19:40;6.65;;;3.53;;
13897;SDS011;7019;50.766;4.474;2023-07-08T13:22:09;9.65;;;3.50;;
13897;SDS011;7019;50.766;4.474;2023-07-08T13:24:40;7.22;;;3.25;;
13897;SDS011;7019;50.766;4.474;2023-07-08T13:27:08;6.65;;;3.17;;
13897;SDS011;7019;50.766;4.474;2023-07-08T13:29:44;4.85;;;3.13;;
13897;SDS011;7019;50.766;4.474;2023-07-08T13:32:11;7.35;;;3.65;;
13897;SDS011;7019;50.766;4.474;2023-07-08T13:34:38;8.35;;;4.63;;
13897;SDS011;7019;50.766;4.474;2023-07-08T13:37:09;7.53;;;4.50;;
13897;SDS011;7019;50.766;4.474;2023-07-08T13:39:38;6.63;;;4.53;;
13897;SDS011;7019;50.766;4.474;2023-07-08T13:42:09;5.35;;;4.25;;
13897;SDS011;7019;50.766;4.474;2023-07-08T13:44:41;5.28;;;3.25;;
13897;SDS011;7019;50.766;4.474;2023-07-08T13:47:23;7.43;;;3.88;;
13897;SDS011;7019;50.766;4.474;2023-07-08T13:49:55;5.05;;;3.60;;
13897;SDS011;7019;50.766;4.474;2023-07-08T13:52:26;6.38;;;3.55;;
13897;SDS011;7019;50.766;4.474;2023-07-08T13:54:54;4.85;;;3.05;;
13897;SDS011;7019;50.766;4.474;2023-07-08T13:57:28;6.78;;;3.85;;
13897;SDS011;7019;50.766;4.474;2023-07-08T13:59:59;8.13;;;3.97;;
13897;SDS011;7019;50.766;4.474;2023-07-08T14:02:27;5.50;;;3.10;;
13897;SDS011;7019;50.766;4.474;2023-07-08T14:04:57;4.78;;;3.05;;
13897;SDS011;7019;50.766;4.474;2023-07-08T14:07:25;6.72;;;3.80;;
13897;SDS011;7019;50.766;4.474;2023-07-08T14:09:55;7.32;;;3.67;;
13897;SDS011;7019;50.766;4.474;2023-07-08T14:12:22;5.47;;;3.00;;
13897;SDS011;7019;50.766;4.474;2023-07-08T14:14:49;5.25;;;3.35;;
13897;SDS011;7019;50.766;4.474;2023-07-08T14:17:18;4.38;;;3.28;;
13897;SDS011;7019;50.766;4.474;2023-07-08T14:19:48;3.95;;;3.00;;
13897;SDS011;7019;50.766;4.474;2023-07-08T14:22:19;5.35;;;3.30;;
13897;SDS011;7019;50.766;4.474;2023-07-08T14:24:49;6.38;;;3.42;;
13897;SDS011;7019;50.766;4.474;2023-07-08T14:27:16;4.22;;;2.83;;
13897;SDS011;7019;50.766;4.474;2023-07-08T14:29:45;4.63;;;3.35;;
13897;SDS011;7019;50.766;4.474;2023-07-08T14:32:16;4.55;;;2.95;;
13897;SDS011;7019;50.766;4.474;2023-07-08T14:34:49;5.43;;;3.65;;
13897;SDS011;7019;50.766;4.474;2023-07-08T14:37:19;5.35;;;3.90;;
13897;SDS011;7019;50.766;4.474;2023-07-08T14:39:46;7.22;;;3.63;;
13897;SDS011;7019;50.766;4.474;2023-07-08T14:42:14;4.10;;;2.92;;
13897;SDS011;7019;50.766;4.474;2023-07-08T14:44:43;5.32;;;3.50;;
13897;SDS011;7019;50.766;4.474;2023-07-08T14:47:14;6.72;;;3.67;;
13897;SDS011;7019;50.766;4.474;2023-07-08T14:49:43;5.18;;;3.33;;
13897;SDS011;7019;50.766;4.474;2023-07-08T14:52:11;6.53;;;3.38;;
13897;SDS011;7019;50.766;4.474;2023-07-08T14:54:38;4.10;;;3.35;;
13897;SDS011;7019;50.766;4.474;2023-07-08T14:57:05;7.32;;;4.80;;
13897;SDS011;7019;50.766;4.474;2023-07-08T14:59:33;7.70;;;4.78;;
13897;SDS011;7019;50.766;4.474;2023-07-08T15:02:02;5.18;;;4.05;;
13897;SDS011;7019;50.766;4.474;2023-07-08T15:04:47;7.53;;;3.63;;
13897;SDS011;7019;50.766;4.474;2023-07-08T15:07:14;5.20;;;3.88;;
13897;SDS011;7019;50.766;4.474;2023-07-08T15:09:41;4.40;;;3.08;;
13897;SDS011;7019;50.766;4.474;2023-07-08T15:12:09;4.18;;;3.00;;
13897;SDS011;7019;50.766;4.474;2023-07-08T15:14:38;5.88;;;3.60;;
13897;SDS011;7019;50.766;4.474;2023-07-08T15:17:08;4.78;;;3.55;;
13897;SDS011;7019;50.766;4.474;2023-07-08T15:19:41;4.90;;;3.40;;
13897;SDS011;7019;50.766;4.474;2023-07-08T15:22:10;3.38;;;3.05;;
13897;SDS011;7019;50.766;4.474;2023-07-08T15:24:37;5.50;;;3.17;;
13897;SDS011;7019;50.766;4.474;2023-07-08T15:27:04;4.28;;;3.15;;